createdAt,value
2018-08-13T00:00:31.710Z,22.26
2018-08-13T00:03:04.991Z,22.26
2018-08-13T00:05:38.038Z,22.23
2018-08-13T00:08:11.455Z,22.19
2018-08-13T00:10:44.864Z,22.17
2018-08-13T00:13:18.008Z,22.14
2018-08-13T00:15:51.594Z,22.14
2018-08-13T00:18:24.588Z,22.11
2018-08-13T00:20:59.633Z,22.08
2018-08-13T00:23:30.478Z,22.09
2018-08-13T00:26:03.432Z,22.08
2018-08-13T00:28:36.455Z,22.04
2018-08-13T00:31:09.419Z,22.05
2018-08-13T00:33:43.160Z,22.05
2018-08-13T00:36:16.099Z,22.04
2018-08-13T00:38:49.123Z,22.02
2018-08-13T00:41:22.785Z,21.96
2018-08-13T00:43:54.462Z,21.94
2018-08-13T00:46:27.577Z,21.92
2018-08-13T00:49:00.828Z,21.90
2018-08-13T00:51:34.902Z,21.89
2018-08-13T00:54:07.650Z,21.85
2018-08-13T00:56:41.197Z,21.85
2018-08-13T00:59:14.437Z,21.84
2018-08-13T01:01:47.498Z,21.85
2018-08-13T01:04:21.052Z,21.88
2018-08-13T01:06:54.234Z,21.85
2018-08-13T01:09:27.945Z,21.83
2018-08-13T01:11:59.352Z,21.77
2018-08-13T01:14:32.813Z,21.75
2018-08-13T01:17:06.095Z,21.78
2018-08-13T01:19:35.740Z,21.77
2018-08-13T01:22:05.477Z,21.79
2018-08-13T01:24:35.620Z,21.78
2018-08-13T01:27:05.123Z,21.77
2018-08-13T01:29:34.787Z,21.77
2018-08-13T01:32:04.397Z,21.78
2018-08-13T01:34:33.934Z,21.72
2018-08-13T01:37:03.484Z,21.72
2018-08-13T01:39:33.014Z,21.72
2018-08-13T01:42:02.885Z,21.62
2018-08-13T01:44:32.809Z,21.62
2018-08-13T01:47:02.349Z,21.66
2018-08-13T01:49:31.886Z,21.68
2018-08-13T01:52:01.450Z,21.67
2018-08-13T01:54:31.013Z,21.67
2018-08-13T01:57:00.869Z,21.68
2018-08-13T01:59:30.394Z,21.70
2018-08-13T02:02:00.070Z,21.70
2018-08-13T02:04:30.049Z,21.59
2018-08-13T02:06:59.918Z,21.71
2018-08-13T02:09:33.315Z,21.71
2018-08-13T02:12:04.126Z,21.70
2018-08-13T02:14:34.090Z,21.71
2018-08-13T02:17:04.005Z,21.70
2018-08-13T02:19:34.180Z,21.71
2018-08-13T02:22:03.764Z,21.71
2018-08-13T02:24:33.417Z,21.71
2018-08-13T02:27:03.810Z,21.73
2018-08-13T02:29:33.665Z,21.68
2018-08-13T02:32:03.253Z,21.66
2018-08-13T02:34:32.776Z,21.69
2018-08-13T02:37:02.337Z,21.68
2018-08-13T02:39:32.098Z,21.66
2018-08-13T02:42:02.036Z,21.66
2018-08-13T02:44:31.983Z,21.64
2018-08-13T02:47:01.470Z,21.64
2018-08-13T02:49:31.360Z,21.64
2018-08-13T02:52:01.316Z,21.63
2018-08-13T02:54:31.805Z,21.61
2018-08-13T02:57:01.325Z,21.64
2018-08-13T02:59:31.599Z,21.65
2018-08-13T03:02:01.573Z,21.63
2018-08-13T03:04:31.221Z,21.57
2018-08-13T03:07:01.009Z,21.51
2018-08-13T03:09:30.568Z,21.43
2018-08-13T03:12:00.762Z,21.28
2018-08-13T03:14:30.253Z,21.25
2018-08-13T03:16:59.809Z,21.20
2018-08-13T03:19:29.667Z,21.19
2018-08-13T03:21:59.868Z,21.12
2018-08-13T03:24:29.772Z,21.05
2018-08-13T03:26:59.378Z,21.04
2018-08-13T03:29:28.944Z,21.05
2018-08-13T03:31:58.501Z,21.13
2018-08-13T03:34:28.388Z,21.16
2018-08-13T03:36:58.570Z,21.21
2018-08-13T03:39:28.445Z,21.27
2018-08-13T03:41:58.025Z,21.28
2018-08-13T03:44:28.037Z,21.32
2018-08-13T03:46:57.623Z,21.33
2018-08-13T03:49:27.725Z,21.29
2018-08-13T03:51:57.254Z,21.23
2018-08-13T03:54:26.836Z,21.25
2018-08-13T03:56:56.387Z,21.26
2018-08-13T03:59:26.001Z,21.26
2018-08-13T04:01:56.053Z,21.25
2018-08-13T04:04:25.980Z,21.15
2018-08-13T04:06:56.019Z,21.00
2018-08-13T04:09:25.910Z,20.87
2018-08-13T04:11:56.204Z,20.75
2018-08-13T04:14:26.211Z,20.66
2018-08-13T04:16:59.651Z,20.59
2018-08-13T04:19:29.812Z,20.56
2018-08-13T04:22:00.144Z,20.56
2018-08-13T04:24:30.204Z,20.57
2018-08-13T04:27:00.729Z,20.62
2018-08-13T04:29:30.472Z,20.69
2018-08-13T04:32:00.356Z,20.76
2018-08-13T04:34:29.945Z,20.75
2018-08-13T04:36:59.642Z,20.80
2018-08-13T04:39:29.514Z,20.81
2018-08-13T04:41:59.280Z,20.86
2018-08-13T04:44:29.568Z,20.84
2018-08-13T04:46:59.573Z,20.78
2018-08-13T04:49:29.115Z,20.75
2018-08-13T04:51:58.658Z,20.84
2018-08-13T04:54:28.214Z,20.89
2018-08-13T04:56:57.794Z,20.92
2018-08-13T04:59:27.399Z,20.96
2018-08-13T05:01:57.035Z,21.00
2018-08-13T05:04:26.627Z,21.12
2018-08-13T05:06:56.142Z,21.18
2018-08-13T05:09:25.692Z,21.24
2018-08-13T05:11:55.642Z,21.42
2018-08-13T05:14:25.734Z,21.51
2018-08-13T05:16:55.307Z,21.60
2018-08-13T05:19:24.883Z,21.71
2018-08-13T05:21:54.768Z,21.79
2018-08-13T05:24:24.362Z,21.90
2018-08-13T05:26:53.980Z,21.93
2018-08-13T05:29:23.519Z,22.00
2018-08-13T05:31:53.069Z,22.02
2018-08-13T05:34:22.652Z,22.04
2018-08-13T05:36:52.302Z,22.10
2018-08-13T05:39:21.846Z,22.09
2018-08-13T05:41:51.409Z,22.02
2018-08-13T05:44:21.282Z,22.06
2018-08-13T05:46:50.888Z,22.10
2018-08-13T05:49:20.438Z,22.12
2018-08-13T05:51:50.864Z,22.01
2018-08-13T05:54:20.649Z,22.05
2018-08-13T05:56:50.401Z,21.97
2018-08-13T05:59:20.280Z,22.07
2018-08-13T06:01:50.525Z,21.97
2018-08-13T06:04:20.515Z,21.94
2018-08-13T06:06:50.118Z,21.84
2018-08-13T06:09:20.156Z,21.78
2018-08-13T06:11:50.085Z,21.78
2018-08-13T06:14:19.801Z,21.74
2018-08-13T06:16:49.493Z,21.82
2018-08-13T06:19:19.384Z,21.75
2018-08-13T06:21:49.004Z,21.81
2018-08-13T06:24:18.642Z,21.77
2018-08-13T06:26:48.849Z,21.76
2018-08-13T06:29:18.367Z,21.74
2018-08-13T06:31:47.923Z,21.74
2018-08-13T06:34:17.586Z,21.65
2018-08-13T06:36:47.638Z,21.57
2018-08-13T06:39:17.219Z,21.64
2018-08-13T06:41:46.813Z,21.64
2018-08-13T06:44:16.428Z,21.73
2018-08-13T06:46:46.174Z,21.70
2018-08-13T06:49:15.855Z,21.69
2018-08-13T06:51:45.445Z,21.64
2018-08-13T06:54:15.034Z,21.54
2018-08-13T06:56:44.715Z,21.46
2018-08-13T06:59:14.736Z,21.42
2018-08-13T07:01:44.630Z,21.49
2018-08-13T07:04:14.514Z,21.52
2018-08-13T07:06:44.476Z,21.54
2018-08-13T07:09:14.787Z,21.62
2018-08-13T07:11:44.391Z,21.68
2018-08-13T07:14:14.440Z,21.71
2018-08-13T07:16:44.581Z,21.70
2018-08-13T07:19:14.553Z,21.61
2018-08-13T07:21:44.183Z,21.56
2018-08-13T07:24:14.271Z,21.52
2018-08-13T07:26:43.998Z,21.53
2018-08-13T07:29:14.209Z,21.51
2018-08-13T07:31:48.892Z,21.48
2018-08-13T07:34:18.814Z,21.51
2018-08-13T07:36:48.737Z,21.49
2018-08-13T07:39:20.016Z,21.45
2018-08-13T07:41:50.319Z,21.44
2018-08-13T07:44:21.014Z,21.43
2018-08-13T07:47:00.557Z,21.43
2018-08-13T07:49:30.295Z,21.43
2018-08-13T07:51:59.986Z,21.46
2018-08-13T07:54:30.203Z,21.50
2018-08-13T07:56:59.769Z,21.55
2018-08-13T07:59:29.860Z,21.61
2018-08-13T08:01:59.926Z,21.60
2018-08-13T08:04:29.786Z,21.58
2018-08-13T08:06:59.896Z,21.60
2018-08-13T08:09:29.486Z,21.63
2018-08-13T08:11:59.148Z,21.65
2018-08-13T08:14:29.597Z,21.60
2018-08-13T08:17:00.357Z,21.60
2018-08-13T08:19:30.005Z,21.58
2018-08-13T08:21:59.747Z,21.51
2018-08-13T08:24:29.466Z,21.49
2018-08-13T08:26:59.084Z,21.49
2018-08-13T08:29:28.684Z,21.49
2018-08-13T08:31:58.544Z,21.42
2018-08-13T08:34:28.430Z,21.41
2018-08-13T08:36:58.071Z,21.44
2018-08-13T08:39:27.822Z,21.44
2018-08-13T08:41:57.392Z,21.47
2018-08-13T08:44:27.636Z,21.42
2018-08-13T08:46:57.141Z,21.44
2018-08-13T08:49:26.717Z,21.43
2018-08-13T08:51:56.749Z,21.43
2018-08-13T08:54:26.703Z,21.41
2018-08-13T08:56:56.247Z,21.50
2018-08-13T08:59:26.170Z,21.51
2018-08-13T09:01:55.813Z,21.49
2018-08-13T09:04:25.339Z,21.57
2018-08-13T09:06:55.126Z,21.45
2018-08-13T09:09:24.727Z,21.42
2018-08-13T09:11:54.345Z,21.31
2018-08-13T09:14:24.425Z,21.34
2018-08-13T09:16:54.313Z,21.41
2018-08-13T09:19:40.942Z,21.39
2018-08-13T09:22:27.513Z,21.40
2018-08-13T09:25:14.047Z,21.42
2018-08-13T09:28:00.604Z,21.50
2018-08-13T09:30:47.076Z,21.56
2018-08-13T09:33:33.748Z,21.62
2018-08-13T09:36:03.646Z,21.61
2018-08-13T09:38:33.383Z,21.63
2018-08-13T09:41:03.077Z,21.68
2018-08-13T09:43:32.977Z,21.72
2018-08-13T09:46:02.828Z,21.82
2018-08-13T09:48:33.118Z,21.93
2018-08-13T09:51:05.153Z,22.06
2018-08-13T09:53:35.132Z,22.35
2018-08-13T09:56:04.977Z,22.54
2018-08-13T09:58:34.696Z,22.85
2018-08-13T10:01:08.051Z,23.13
2018-08-13T10:03:38.069Z,23.24
2018-08-13T10:06:07.685Z,23.37
2018-08-13T10:08:37.333Z,23.62
2018-08-13T10:11:06.987Z,23.81
2018-08-13T10:13:36.777Z,23.81
2018-08-13T10:16:06.471Z,23.74
2018-08-13T10:18:36.229Z,23.62
2018-08-13T10:21:05.834Z,23.63
2018-08-13T10:23:35.397Z,23.66
2018-08-13T10:26:05.693Z,23.76
2018-08-13T10:28:35.662Z,23.78
2018-08-13T10:31:05.282Z,23.61
2018-08-13T10:33:34.910Z,23.71
2018-08-13T10:36:04.844Z,23.52
2018-08-13T10:38:34.887Z,23.53
2018-08-13T10:41:04.438Z,23.46
2018-08-13T10:43:34.115Z,23.33
2018-08-13T10:46:03.865Z,23.31
2018-08-13T10:48:33.815Z,23.41
2018-08-13T10:51:03.745Z,23.43
2018-08-13T10:53:33.609Z,23.63
2018-08-13T10:56:03.231Z,23.78
2018-08-13T10:58:33.341Z,23.90
2018-08-13T11:01:03.049Z,23.90
2018-08-13T11:03:32.880Z,24.03
2018-08-13T11:06:02.447Z,24.29
2018-08-13T11:08:32.205Z,24.49
2018-08-13T11:11:01.797Z,24.70
2018-08-13T11:13:31.473Z,24.65
2018-08-13T11:16:01.295Z,24.68
2018-08-13T11:18:31.501Z,24.67
2018-08-13T11:21:01.109Z,24.75
2018-08-13T11:23:31.007Z,24.79
2018-08-13T11:26:00.665Z,24.77
2018-08-13T11:28:30.609Z,24.58
2018-08-13T11:31:00.377Z,24.55
2018-08-13T11:33:30.492Z,24.45
2018-08-13T11:36:00.157Z,24.39
2018-08-13T11:38:30.620Z,24.51
2018-08-13T11:41:00.256Z,24.35
2018-08-13T11:43:29.892Z,24.23
2018-08-13T11:45:59.830Z,24.18
2018-08-13T11:48:29.920Z,24.05
2018-08-13T11:50:59.536Z,23.97
2018-08-13T11:53:29.291Z,23.79
2018-08-13T11:55:58.965Z,23.77
2018-08-13T11:58:28.515Z,23.57
2018-08-13T12:00:58.485Z,23.36
2018-08-13T12:03:28.579Z,23.40
2018-08-13T12:05:58.535Z,23.34
2018-08-13T12:08:28.207Z,23.40
2018-08-13T12:10:58.189Z,23.42
2018-08-13T12:13:27.854Z,23.42
2018-08-13T12:15:57.828Z,23.41
2018-08-13T12:18:27.783Z,23.41
2018-08-13T12:20:57.321Z,23.36
2018-08-13T12:23:26.852Z,23.37
2018-08-13T12:25:56.857Z,23.36
2018-08-13T12:28:26.529Z,23.23
2018-08-13T12:30:56.097Z,23.30
2018-08-13T12:33:25.937Z,23.34
2018-08-13T12:35:55.568Z,23.27
2018-08-13T12:38:25.217Z,23.18
2018-08-13T12:40:55.195Z,23.21
2018-08-13T12:43:25.247Z,23.07
2018-08-13T12:45:54.885Z,23.09
2018-08-13T12:48:24.418Z,23.20
2018-08-13T12:50:54.016Z,23.19
2018-08-13T12:53:24.054Z,23.17
2018-08-13T12:55:53.996Z,23.21
2018-08-13T12:58:23.799Z,23.17
2018-08-13T13:00:59.305Z,23.20
2018-08-13T13:03:29.988Z,23.22
2018-08-13T13:05:59.577Z,23.16
2018-08-13T13:08:29.886Z,23.21
2018-08-13T13:11:00.123Z,23.22
2018-08-13T13:13:29.860Z,23.20
2018-08-13T13:16:00.670Z,23.20
2018-08-13T13:18:31.033Z,23.17
2018-08-13T13:21:00.845Z,23.05
2018-08-13T13:23:31.487Z,23.06
2018-08-13T13:26:01.880Z,23.01
2018-08-13T13:28:32.069Z,23.05
2018-08-13T13:31:01.987Z,23.10
2018-08-13T13:33:33.820Z,23.00
2018-08-13T13:36:03.633Z,22.97
2018-08-13T13:38:34.721Z,22.92
2018-08-13T13:41:05.475Z,22.84
2018-08-13T13:43:37.093Z,22.59
2018-08-13T13:46:09.990Z,22.55
2018-08-13T13:48:40.095Z,22.44
2018-08-13T13:51:10.851Z,22.38
2018-08-13T13:53:41.777Z,22.36
2018-08-13T13:56:12.368Z,22.39
2018-08-13T13:58:42.920Z,22.21
2018-08-13T14:01:13.566Z,21.98
2018-08-13T14:03:43.645Z,22.02
2018-08-13T14:06:13.520Z,21.99
2018-08-13T14:08:43.533Z,22.09
2018-08-13T14:11:13.123Z,22.20
2018-08-13T14:13:43.044Z,22.13
2018-08-13T14:16:12.744Z,22.18
2018-08-13T14:18:42.715Z,22.21
2018-08-13T14:21:12.297Z,22.32
2018-08-13T14:23:41.903Z,22.49
2018-08-13T14:26:11.540Z,22.59
2018-08-13T14:28:42.176Z,22.73
2018-08-13T14:31:11.782Z,22.81
2018-08-13T14:33:41.398Z,22.90
2018-08-13T14:36:10.982Z,22.97
2018-08-13T14:38:41.305Z,22.97
2018-08-13T14:41:11.510Z,23.00
2018-08-13T14:43:41.100Z,22.93
2018-08-13T14:46:11.419Z,22.87
2018-08-13T14:48:41.377Z,22.81
2018-08-13T14:51:10.981Z,22.84
2018-08-13T14:53:40.962Z,22.61
2018-08-13T14:56:10.574Z,22.57
2018-08-13T14:58:41.170Z,22.62
2018-08-13T15:01:10.776Z,22.45
2018-08-13T15:03:40.497Z,22.43
2018-08-13T15:06:10.516Z,21.89
2018-08-13T15:08:40.743Z,21.10
2018-08-13T15:11:10.321Z,20.78
2018-08-13T15:13:39.913Z,20.59
2018-08-13T15:16:09.860Z,20.62
2018-08-13T15:18:39.744Z,20.57
2018-08-13T15:21:09.490Z,20.60
2018-08-13T15:23:39.694Z,20.52
2018-08-13T15:26:09.268Z,20.38
2018-08-13T15:28:38.857Z,20.15
2018-08-13T15:31:08.731Z,20.01
2018-08-13T15:33:38.259Z,20.03
2018-08-13T15:36:07.965Z,20.14
2018-08-13T15:38:38.987Z,20.19
2018-08-13T15:41:08.586Z,20.21
2018-08-13T15:43:38.466Z,20.23
2018-08-13T15:46:08.420Z,20.09
2018-08-13T15:48:37.966Z,20.14
2018-08-13T15:51:07.613Z,20.00
2018-08-13T15:53:37.237Z,20.05
2018-08-13T15:56:07.112Z,20.16
2018-08-13T15:58:37.086Z,20.10
2018-08-13T16:01:07.339Z,20.23
2018-08-13T16:03:37.157Z,20.29
2018-08-13T16:06:06.722Z,20.26
2018-08-13T16:08:36.653Z,20.18
2018-08-13T16:11:07.150Z,20.16
2018-08-13T16:13:36.757Z,20.07
2018-08-13T16:16:06.335Z,20.02
2018-08-13T16:18:37.266Z,20.02
2018-08-13T16:21:07.187Z,19.83
2018-08-13T16:23:38.664Z,19.92
2018-08-13T16:26:08.252Z,19.82
2018-08-13T16:28:37.845Z,19.85
2018-08-13T16:31:07.473Z,19.83
2018-08-13T16:33:37.075Z,19.80
2018-08-13T16:36:07.087Z,19.88
2018-08-13T16:38:36.612Z,19.97
2018-08-13T16:41:07.241Z,19.90
2018-08-13T16:43:37.289Z,19.82
2018-08-13T16:46:07.159Z,19.93
2018-08-13T16:48:36.786Z,19.92
2018-08-13T16:51:06.409Z,20.01
2018-08-13T16:53:36.301Z,20.01
2018-08-13T16:56:06.162Z,20.04
2018-08-13T16:58:36.287Z,20.18
2018-08-13T17:01:07.120Z,20.20
2018-08-13T17:03:36.847Z,20.31
2018-08-13T17:06:06.548Z,20.33
2018-08-13T17:08:36.540Z,20.34
2018-08-13T17:11:06.293Z,20.33
2018-08-13T17:13:36.856Z,20.36
2018-08-13T17:16:08.545Z,20.22
2018-08-13T17:18:38.398Z,20.16
2018-08-13T17:21:08.431Z,20.22
2018-08-13T17:23:39.869Z,20.25
2018-08-13T17:26:09.695Z,20.34
2018-08-13T17:28:39.261Z,20.41
2018-08-13T17:31:09.249Z,20.41
2018-08-13T17:33:38.902Z,20.42
2018-08-13T17:36:08.575Z,20.40
2018-08-13T17:38:39.471Z,20.44
2018-08-13T17:41:09.481Z,20.39
2018-08-13T17:43:39.288Z,20.40
2018-08-13T17:46:09.095Z,20.47
2018-08-13T17:48:38.923Z,20.50
2018-08-13T17:51:08.588Z,20.50
2018-08-13T17:53:38.131Z,20.44
2018-08-13T17:56:08.623Z,20.39
2018-08-13T17:58:38.160Z,20.41
2018-08-13T18:01:08.348Z,20.40
2018-08-13T18:03:38.340Z,20.43
2018-08-13T18:06:08.406Z,20.39
2018-08-13T18:08:39.979Z,20.35
2018-08-13T18:11:09.446Z,20.39
2018-08-13T18:13:39.039Z,20.38
2018-08-13T18:16:09.019Z,20.36
2018-08-13T18:18:38.754Z,20.36
2018-08-13T18:21:08.498Z,20.38
2018-08-13T18:23:38.428Z,20.36
2018-08-13T18:26:08.010Z,20.36
2018-08-13T18:28:37.737Z,20.35
2018-08-13T18:31:08.352Z,20.32
2018-08-13T18:33:38.498Z,20.36
2018-08-13T18:36:09.826Z,20.36
2018-08-13T18:38:39.769Z,20.39
2018-08-13T18:41:10.397Z,20.39
2018-08-13T18:43:40.220Z,20.37
2018-08-13T18:46:10.160Z,20.39
2018-08-13T18:48:39.661Z,20.39
2018-08-13T18:51:09.160Z,20.40
2018-08-13T18:53:39.173Z,20.40
2018-08-13T18:56:09.727Z,20.39
2018-08-13T18:58:39.429Z,20.36
2018-08-13T19:01:09.351Z,20.35
2018-08-13T19:03:39.448Z,20.28
2018-08-13T19:06:09.658Z,20.39
2018-08-13T19:08:39.224Z,20.38
2018-08-13T19:11:09.330Z,20.30
2018-08-13T19:13:39.414Z,20.28
2018-08-13T19:16:09.175Z,20.23
2018-08-13T19:18:38.648Z,20.22
2018-08-13T19:21:08.897Z,20.20
2018-08-13T19:23:38.463Z,20.17
2018-08-13T19:26:08.821Z,20.11
2018-08-13T19:28:38.579Z,20.09
2018-08-13T19:31:08.344Z,20.10
2018-08-13T19:33:38.355Z,20.06
2018-08-13T19:36:08.167Z,20.07
2018-08-13T19:38:38.228Z,20.08
2018-08-13T19:41:08.539Z,20.08
2018-08-13T19:43:38.597Z,20.11
2018-08-13T19:46:08.867Z,20.10
2018-08-13T19:48:39.022Z,20.09
2018-08-13T19:51:08.606Z,19.89
2018-08-13T19:53:38.784Z,20.00
2018-08-13T19:56:08.700Z,20.05
2018-08-13T19:58:38.232Z,20.03
2018-08-13T20:01:08.159Z,20.06
2018-08-13T20:03:37.724Z,20.06
2018-08-13T20:06:10.888Z,20.07
2018-08-13T20:08:44.220Z,20.08
2018-08-13T20:11:16.508Z,20.02
2018-08-13T20:13:50.108Z,20.04
2018-08-13T20:16:22.657Z,19.92
2018-08-13T20:18:55.835Z,19.97
2018-08-13T20:21:27.974Z,19.99
2018-08-13T20:24:00.333Z,19.94
2018-08-13T20:26:31.859Z,19.96
2018-08-13T20:29:04.379Z,19.97
2018-08-13T20:31:39.185Z,19.91
2018-08-13T20:36:53.922Z,19.88
2018-08-13T20:39:26.310Z,19.84
2018-08-13T20:41:56.702Z,19.78
2018-08-13T20:44:29.392Z,19.77
2018-08-13T20:47:01.342Z,19.74
2018-08-13T20:49:34.700Z,19.72
2018-08-13T20:52:07.361Z,19.70
2018-08-13T20:54:41.066Z,19.68
2018-08-13T20:57:11.553Z,19.71
2018-08-13T20:59:44.480Z,19.71
2018-08-13T21:02:15.176Z,19.70
2018-08-13T21:04:47.992Z,19.69
2018-08-13T21:07:21.369Z,19.66
2018-08-13T21:09:51.450Z,19.61
2018-08-13T21:12:22.675Z,19.58
2018-08-13T21:14:52.840Z,19.50
2018-08-13T21:17:23.926Z,19.49
2018-08-13T21:19:55.955Z,19.48
2018-08-13T21:22:26.721Z,19.44
2018-08-13T21:24:56.598Z,19.43
2018-08-13T21:27:26.535Z,19.44
2018-08-13T21:29:56.023Z,19.39
2018-08-13T21:32:25.892Z,19.35
2018-08-13T21:34:55.573Z,19.33
2018-08-13T21:37:25.365Z,19.28
2018-08-13T21:39:57.951Z,19.27
2018-08-13T21:42:29.512Z,19.20
2018-08-13T21:45:00.897Z,19.22
2018-08-13T21:47:33.226Z,19.15
2018-08-13T21:50:07.877Z,19.09
2018-08-13T21:52:39.405Z,19.03
2018-08-13T21:55:10.678Z,18.99
2018-08-13T21:57:42.496Z,18.98
2018-08-13T22:00:40.332Z,18.78
2018-08-13T22:03:12.087Z,18.99
2018-08-13T22:05:45.220Z,19.00
2018-08-13T22:08:16.235Z,18.94
2018-08-13T22:10:48.780Z,18.92
2018-08-13T22:13:19.517Z,18.93
2018-08-13T22:15:50.939Z,18.89
2018-08-13T22:18:27.702Z,18.87
2018-08-13T22:21:00.138Z,18.81
2018-08-13T22:23:32.381Z,18.86
2018-08-13T22:26:05.051Z,18.85
2018-08-13T22:28:34.838Z,18.83
2018-08-13T22:31:07.863Z,18.88
2018-08-13T22:33:39.359Z,18.86
2018-08-13T22:36:11.750Z,18.85
2018-08-13T22:38:44.195Z,18.81
2018-08-13T22:41:16.720Z,18.78
2018-08-13T22:43:48.407Z,18.77
2018-08-13T22:46:21.111Z,18.77
2018-08-13T22:48:51.364Z,18.78
2018-08-13T22:51:23.271Z,18.80
2018-08-13T22:53:54.218Z,18.79
2018-08-13T22:56:25.313Z,18.77
2018-08-13T22:58:57.157Z,18.70
2018-08-13T23:01:30.141Z,18.65
2018-08-13T23:04:03.445Z,18.63
2018-08-13T23:06:35.797Z,18.61
2018-08-13T23:09:11.085Z,18.64
2018-08-13T23:11:41.170Z,18.64
2018-08-13T23:14:13.461Z,18.62
2018-08-13T23:16:43.911Z,18.66
2018-08-13T23:19:15.209Z,18.69
2018-08-13T23:21:48.256Z,18.67
2018-08-13T23:24:19.374Z,18.71
2018-08-13T23:26:49.838Z,18.69
2018-08-13T23:44:11.473Z,18.60
2018-08-13T23:46:43.398Z,18.59
2018-08-13T23:49:14.417Z,18.60
2018-08-13T23:51:46.177Z,18.57
2018-08-13T23:54:17.666Z,18.63
2018-08-13T23:56:49.591Z,18.67
2018-08-13T23:59:22.134Z,18.68
